createdAt,value
2022-09-02T00:01:39.939Z,99397.53
2022-09-02T00:04:17.933Z,99398.34
2022-09-02T00:06:47.069Z,99398.84
2022-09-02T00:09:16.123Z,99400.69
2022-09-02T00:11:45.239Z,99410.69
2022-09-02T00:14:15.832Z,99409.94
2022-09-02T00:16:45.334Z,99408.22
2022-09-02T00:19:12.317Z,99402.50
2022-09-02T00:21:39.492Z,99400.69
2022-09-02T00:24:07.712Z,99408.66
2022-09-02T00:26:34.797Z,99409.97
2022-09-02T00:29:01.941Z,99408.41
2022-09-02T00:31:29.337Z,99407.88
2022-09-02T00:33:56.783Z,99408.66
2022-09-02T00:36:23.881Z,99399.38
2022-09-02T00:38:51.553Z,99403.16
2022-09-02T00:41:26.556Z,99407.38
2022-09-02T00:43:56.421Z,99408.53
2022-09-02T00:46:25.811Z,99408.66
2022-09-02T00:49:05.949Z,99401.19
2022-09-02T00:51:55.990Z,99406.09
2022-09-02T00:54:25.814Z,99404.59
2022-09-02T00:56:55.821Z,99404.44
2022-09-02T00:59:41.693Z,99413.59
2022-09-02T01:02:09.798Z,99408.25
2022-09-02T01:04:37.299Z,99415.00
2022-09-02T01:07:04.673Z,99407.47
2022-09-02T01:09:33.576Z,99407.94
2022-09-02T01:12:03.634Z,99409.28
2022-09-02T01:14:30.949Z,99411.59
2022-09-02T01:17:00.883Z,99420.44
2022-09-02T01:19:51.899Z,99418.50
2022-09-02T01:22:22.188Z,99423.75
2022-09-02T01:24:50.275Z,99425.56
2022-09-02T01:27:21.273Z,99416.03
2022-09-02T01:29:57.742Z,99413.66
2022-09-02T01:32:25.956Z,99412.34
2022-09-02T01:34:54.488Z,99416.50
2022-09-02T01:37:22.233Z,99424.41
2022-09-02T01:39:49.759Z,99417.16
2022-09-02T01:42:16.736Z,99426.34
2022-09-02T01:44:46.569Z,99429.34
2022-09-02T01:47:17.110Z,99426.00
2022-09-02T01:49:46.709Z,99431.09
2022-09-02T01:52:15.251Z,99431.88
2022-09-02T01:54:42.296Z,99432.53
2022-09-02T01:57:09.497Z,99430.38
2022-09-02T01:59:37.371Z,99440.97
2022-09-02T02:02:05.394Z,99438.50
2022-09-02T02:04:34.355Z,99440.00
2022-09-02T02:07:04.549Z,99439.63
2022-09-02T02:09:31.773Z,99448.78
2022-09-02T02:11:59.053Z,99443.19
2022-09-02T02:14:28.350Z,99445.00
2022-09-02T02:16:55.437Z,99443.34
2022-09-02T02:19:22.660Z,99437.97
2022-09-02T02:21:50.136Z,99443.13
2022-09-02T02:24:17.250Z,99443.88
2022-09-02T02:26:44.617Z,99448.94
2022-09-02T02:29:12.319Z,99442.31
2022-09-02T02:31:40.356Z,99443.72
2022-09-02T02:34:07.666Z,99444.72
2022-09-02T02:36:35.175Z,99450.66
2022-09-02T02:39:02.163Z,99451.25
2022-09-02T02:41:32.587Z,99449.78
2022-09-02T02:44:00.301Z,99455.88
2022-09-02T02:46:31.260Z,99455.97
2022-09-02T02:49:02.348Z,99454.56
2022-09-02T02:51:29.481Z,99454.56
2022-09-02T02:53:59.039Z,99463.00
2022-09-02T02:56:30.179Z,99467.53
2022-09-02T02:59:00.037Z,99469.47
2022-09-02T03:01:28.014Z,99471.88
2022-09-02T03:03:55.396Z,99473.88
2022-09-02T03:06:26.491Z,99479.19
2022-09-02T03:08:54.838Z,99478.28
2022-09-02T03:11:22.727Z,99468.97
2022-09-02T03:13:51.507Z,99473.44
2022-09-02T03:16:20.136Z,99479.28
2022-09-02T03:18:50.130Z,99482.41
2022-09-02T03:21:18.290Z,99477.69
2022-09-02T03:23:46.976Z,99477.09
2022-09-02T03:26:21.674Z,99489.50
2022-09-02T03:28:49.553Z,99493.38
2022-09-02T03:31:21.240Z,99483.94
2022-09-02T03:33:48.854Z,99486.56
2022-09-02T03:36:26.357Z,99490.66
2022-09-02T03:38:54.518Z,99480.50
2022-09-02T03:41:22.554Z,99486.63
2022-09-02T03:43:50.179Z,99489.16
2022-09-02T03:46:18.784Z,99487.75
2022-09-02T03:48:46.327Z,99483.19
2022-09-02T03:51:14.029Z,99490.16
2022-09-02T03:53:41.736Z,99488.53
2022-09-02T03:56:14.316Z,99496.44
2022-09-02T03:58:43.464Z,99500.38
2022-09-02T04:01:20.133Z,99506.63
2022-09-02T04:03:47.402Z,99509.56
2022-09-02T04:06:17.847Z,99506.91
2022-09-02T04:08:45.183Z,99512.03
2022-09-02T04:11:17.901Z,99511.81
2022-09-02T04:13:49.221Z,99512.78
2022-09-02T04:16:27.624Z,99520.03
2022-09-02T04:18:59.428Z,99515.19
2022-09-02T04:21:28.186Z,99524.41
2022-09-02T04:23:56.667Z,99522.91
2022-09-02T04:26:24.012Z,99532.91
2022-09-02T04:28:54.365Z,99524.47
2022-09-02T04:31:25.961Z,99519.69
2022-09-02T04:33:54.224Z,99522.16
2022-09-02T04:36:22.500Z,99526.47
2022-09-02T04:38:54.441Z,99531.91
2022-09-02T04:41:27.119Z,99530.53
2022-09-02T04:43:59.154Z,99532.13
2022-09-02T04:46:34.604Z,99535.91
2022-09-02T04:49:05.195Z,99527.50
2022-09-02T04:51:33.428Z,99530.47
2022-09-02T04:54:02.282Z,99544.00
2022-09-02T04:56:34.404Z,99545.66
2022-09-02T04:59:03.541Z,99545.09
2022-09-02T05:01:34.046Z,99544.56
2022-09-02T05:04:09.843Z,99534.50
2022-09-02T05:06:44.270Z,99554.81
2022-09-02T05:09:15.618Z,99555.13
2022-09-02T05:11:43.291Z,99547.13
2022-09-02T05:14:10.419Z,99556.66
2022-09-02T05:16:40.721Z,99556.34
2022-09-02T05:19:14.693Z,99560.88
2022-09-02T05:21:48.546Z,99564.16
2022-09-02T05:24:26.657Z,99574.34
2022-09-02T05:26:55.137Z,99571.56
2022-09-02T05:29:23.965Z,99567.28
2022-09-02T05:31:52.148Z,99574.34
2022-09-02T05:34:22.511Z,99567.31
2022-09-02T05:36:52.375Z,99573.75
2022-09-02T05:39:19.635Z,99580.97
2022-09-02T05:41:47.797Z,99584.03
2022-09-02T05:44:15.867Z,99583.38
2022-09-02T05:46:48.543Z,99589.94
2022-09-02T05:49:21.525Z,99586.59
2022-09-02T05:51:58.063Z,99586.38
2022-09-02T05:54:36.368Z,99590.28
2022-09-02T05:57:11.699Z,99591.66
2022-09-02T05:59:44.299Z,99589.00
2022-09-02T06:02:17.824Z,99598.22
2022-09-02T06:04:48.331Z,99590.69
2022-09-02T06:07:19.001Z,99596.22
2022-09-02T06:09:49.202Z,99596.94
2022-09-02T06:12:20.283Z,99595.84
2022-09-02T06:14:48.810Z,99603.19
2022-09-02T06:17:17.103Z,99609.75
2022-09-02T06:19:52.470Z,99610.06
2022-09-02T06:22:21.816Z,99615.56
2022-09-02T06:24:48.961Z,99618.09
2022-09-02T06:27:22.180Z,99621.78
2022-09-02T06:29:52.409Z,99615.34
2022-09-02T06:32:21.897Z,99634.34
2022-09-02T06:34:52.050Z,99638.19
2022-09-02T06:37:19.088Z,99644.63
2022-09-02T06:39:46.836Z,99645.94
2022-09-02T06:42:19.643Z,99650.75
2022-09-02T06:45:03.952Z,99652.78
2022-09-02T06:47:32.280Z,99649.25
2022-09-02T06:50:00.275Z,99660.00
2022-09-02T06:52:27.783Z,99665.75
2022-09-02T06:54:55.506Z,99668.88
2022-09-02T06:57:22.690Z,99663.59
2022-09-02T07:00:02.332Z,99661.97
2022-09-02T07:02:32.969Z,99659.34
2022-09-02T07:05:15.473Z,99666.25
2022-09-02T07:07:48.205Z,99655.91
2022-09-02T07:10:16.566Z,99670.66
2022-09-02T07:12:51.767Z,99666.25
2022-09-02T07:15:19.106Z,99680.16
2022-09-02T07:17:46.581Z,99678.34
2022-09-02T07:20:24.480Z,99671.50
2022-09-02T07:22:56.607Z,99678.03
2022-09-02T07:25:25.957Z,99677.31
2022-09-02T07:27:54.707Z,99673.91
2022-09-02T07:30:22.954Z,99674.56
2022-09-02T07:32:56.817Z,99676.91
2022-09-02T07:35:26.243Z,99676.50
2022-09-02T07:37:53.365Z,99680.81
2022-09-02T07:40:22.923Z,99670.94
2022-09-02T07:42:51.642Z,99675.28
2022-09-02T07:45:20.586Z,99686.59
2022-09-02T07:47:49.543Z,99684.25
2022-09-02T07:50:20.313Z,99696.66
2022-09-02T07:52:57.341Z,99718.09
2022-09-02T07:55:25.600Z,99713.81
2022-09-02T07:57:55.560Z,99719.41
2022-09-02T08:00:27.770Z,99711.28
2022-09-02T08:03:01.965Z,99692.28
2022-09-02T08:05:35.799Z,99703.75
2022-09-02T08:08:03.377Z,99708.44
2022-09-02T08:10:35.819Z,99714.28
2022-09-02T08:13:02.946Z,99703.84
2022-09-02T08:15:31.223Z,99712.06
2022-09-02T08:18:00.439Z,99726.34
2022-09-02T08:20:27.729Z,99717.56
2022-09-02T08:23:05.149Z,99725.59
2022-09-02T08:25:41.017Z,99728.97
2022-09-02T08:28:08.228Z,99724.81
2022-09-02T08:30:35.521Z,99742.38
2022-09-02T08:33:02.658Z,99745.41
2022-09-02T08:35:29.659Z,99739.41
2022-09-02T08:37:59.587Z,99739.06
2022-09-02T08:40:36.973Z,99742.53
2022-09-02T08:43:15.043Z,99743.25
2022-09-02T08:45:44.444Z,99732.84
2022-09-02T08:48:14.964Z,99739.09
2022-09-02T08:50:46.264Z,99733.41
2022-09-02T08:53:19.183Z,99739.97
2022-09-02T08:55:54.270Z,99748.28
2022-09-02T08:58:28.938Z,99741.97
2022-09-02T09:01:18.817Z,99749.75
2022-09-02T09:04:03.662Z,99745.00
2022-09-02T09:06:49.565Z,99748.97
2022-09-02T09:09:41.685Z,99741.63
2022-09-02T09:12:09.105Z,99755.94
2022-09-02T09:14:38.975Z,99751.28
2022-09-02T09:17:31.557Z,99753.78
2022-09-02T09:20:03.821Z,99754.16
2022-09-02T09:22:37.748Z,99750.72
2022-09-02T09:25:11.789Z,99761.09
2022-09-02T09:27:40.374Z,99778.34
2022-09-02T09:30:12.966Z,99772.81
2022-09-02T09:32:46.486Z,99784.25
2022-09-02T09:35:16.108Z,99789.19
2022-09-02T09:37:49.074Z,99794.19
2022-09-02T09:40:27.060Z,99796.19
2022-09-02T09:43:14.500Z,99805.41
2022-09-02T09:45:47.886Z,99803.69
2022-09-02T09:48:24.057Z,99808.50
2022-09-02T09:50:56.867Z,99814.91
2022-09-02T09:53:28.437Z,99809.00
2022-09-02T09:56:21.457Z,99792.13
2022-09-02T09:58:51.338Z,99803.72
2022-09-02T10:01:29.441Z,99805.03
2022-09-02T10:04:09.073Z,99815.56
2022-09-02T10:06:43.779Z,99835.00
2022-09-02T10:09:22.498Z,99820.53
2022-09-02T10:12:00.067Z,99827.91
2022-09-02T10:14:45.182Z,99815.78
2022-09-02T10:17:21.269Z,99834.03
2022-09-02T10:19:59.025Z,99826.41
2022-09-02T10:22:38.499Z,99840.19
2022-09-02T10:25:22.050Z,99837.16
2022-09-02T10:28:04.302Z,99844.19
2022-09-02T10:31:00.987Z,99855.75
2022-09-02T10:33:50.300Z,99840.34
2022-09-02T10:36:25.520Z,99850.41
2022-09-02T10:38:52.649Z,99843.06
2022-09-02T10:41:37.954Z,99859.00
2022-09-02T10:44:35.294Z,99867.22
2022-09-02T10:47:32.868Z,99870.16
2022-09-02T10:50:05.664Z,99878.47
2022-09-02T10:52:53.780Z,99883.09
2022-09-02T10:55:43.147Z,99873.00
2022-09-02T10:58:26.129Z,99885.03
2022-09-02T11:00:56.841Z,99873.91
2022-09-02T11:03:33.452Z,99887.22
2022-09-02T11:06:31.646Z,99883.00
2022-09-02T11:12:06.244Z,99883.28
2022-09-02T11:14:36.561Z,99882.56
2022-09-02T11:17:35.769Z,99882.47
2022-09-02T11:20:25.009Z,99885.44
2022-09-02T11:23:37.071Z,99892.53
2022-09-02T11:26:11.032Z,99894.53
2022-09-02T11:28:44.128Z,99891.03
2022-09-02T11:31:26.344Z,99900.63
2022-09-02T11:33:59.071Z,99888.34
2022-09-02T11:36:29.420Z,99884.88
2022-09-02T11:39:25.792Z,99893.28
2022-09-02T11:42:44.651Z,99895.84
2022-09-02T11:45:14.710Z,99903.84
2022-09-02T11:47:50.583Z,99903.34
2022-09-02T11:50:46.317Z,99910.25
2022-09-02T11:53:35.880Z,99895.56
2022-09-02T11:56:13.092Z,99899.72
2022-09-02T11:58:49.689Z,99902.09
2022-09-02T12:01:25.624Z,99900.22
2022-09-02T12:07:09.727Z,99908.47
2022-09-02T12:09:52.022Z,99906.41
2022-09-02T12:12:41.613Z,99901.06
2022-09-02T12:15:18.111Z,99900.50
2022-09-02T12:17:49.989Z,99913.31
2022-09-02T12:21:05.136Z,99906.56
2022-09-02T12:23:56.704Z,99913.38
2022-09-02T12:26:50.696Z,99916.44
2022-09-02T12:29:18.566Z,99918.31
2022-09-02T12:31:50.675Z,99922.84
2022-09-02T12:34:20.436Z,99918.06
2022-09-02T12:37:03.723Z,99920.09
2022-09-02T12:39:35.631Z,99925.19
2022-09-02T12:42:07.521Z,99922.94
2022-09-02T12:44:44.580Z,99916.00
2022-09-02T12:47:22.183Z,99925.22
2022-09-02T12:50:00.181Z,99924.41
2022-09-02T12:52:36.335Z,99918.72
2022-09-02T12:55:28.866Z,99927.72
2022-09-02T12:58:20.102Z,99920.06
2022-09-02T13:00:49.882Z,99928.34
2022-09-02T13:03:25.673Z,99930.00
2022-09-02T13:06:04.329Z,99931.47
2022-09-02T13:08:55.909Z,99952.03
2022-09-02T13:11:46.176Z,99970.06
2022-09-02T13:14:25.387Z,99981.09
2022-09-02T13:17:36.130Z,99988.38
2022-09-02T13:20:22.813Z,99991.88
2022-09-02T13:23:08.728Z,99988.50
2022-09-02T13:26:27.454Z,99990.72
2022-09-02T13:29:14.657Z,99993.38
2022-09-02T13:31:43.004Z,99981.28
2022-09-02T13:34:13.997Z,99993.59
2022-09-02T13:36:44.267Z,99994.00
2022-09-02T13:39:20.758Z,99991.28
2022-09-02T13:41:47.784Z,100005.47
2022-09-02T13:44:26.619Z,99996.94
2022-09-02T13:46:54.995Z,99998.75
2022-09-02T13:49:40.181Z,99983.78
2022-09-02T13:52:16.936Z,99997.28
2022-09-02T13:54:51.549Z,99999.59
2022-09-02T13:57:24.256Z,100000.63
2022-09-02T13:59:55.283Z,99996.13
2022-09-02T14:02:31.423Z,99997.91
2022-09-02T14:05:15.845Z,100005.13
2022-09-02T14:07:53.559Z,100007.72
2022-09-02T14:10:24.008Z,100013.75
2022-09-02T14:12:51.538Z,100022.88
2022-09-02T14:15:34.046Z,100025.88
2022-09-02T14:18:18.986Z,100043.00
2022-09-02T14:21:03.988Z,100040.25
2022-09-02T14:23:35.907Z,100036.31
2022-09-02T14:26:04.247Z,100038.94
2022-09-02T14:28:34.160Z,100042.59
2022-09-02T14:31:09.351Z,100038.13
2022-09-02T14:33:36.455Z,100048.50
2022-09-02T14:36:17.937Z,100048.16
2022-09-02T14:38:48.692Z,100041.00
2022-09-02T14:41:26.075Z,100034.75
2022-09-02T14:44:08.343Z,100045.19
2022-09-02T14:46:43.594Z,100037.47
2022-09-02T14:49:28.269Z,100051.63
2022-09-02T14:52:02.722Z,100038.16
2022-09-02T14:54:50.867Z,100043.91
2022-09-02T14:57:32.678Z,100043.91
2022-09-02T15:00:15.076Z,100047.50
2022-09-02T15:02:48.935Z,100042.25
2022-09-02T15:05:16.772Z,100039.78
2022-09-02T15:07:45.968Z,100053.56
2022-09-02T15:10:13.027Z,100057.34
2022-09-02T15:12:54.815Z,100051.72
2022-09-02T15:15:22.095Z,100058.72
2022-09-02T15:17:49.221Z,100054.13
2022-09-02T15:20:16.796Z,100054.06
2022-09-02T15:22:44.114Z,100058.03
2022-09-02T15:25:11.188Z,100042.31
2022-09-02T15:27:38.148Z,100065.19
2022-09-02T15:30:06.890Z,100064.00
2022-09-02T15:32:34.066Z,100066.09
2022-09-02T15:35:01.152Z,100068.31
2022-09-02T15:37:30.602Z,100068.63
2022-09-02T15:39:57.796Z,100067.31
2022-09-02T15:42:24.868Z,100078.44
2022-09-02T15:44:51.943Z,100071.66
2022-09-02T15:47:21.032Z,100077.31
2022-09-02T15:49:48.005Z,100078.81
2022-09-02T15:52:15.021Z,100081.75
2022-09-02T15:54:42.067Z,100076.91
2022-09-02T15:57:09.176Z,100084.81
2022-09-02T15:59:36.155Z,100087.44
2022-09-02T16:02:03.686Z,100083.84
2022-09-02T16:04:30.726Z,100084.13
2022-09-02T16:06:57.774Z,100092.19
2022-09-02T16:09:25.106Z,100093.63
2022-09-02T16:11:54.232Z,100102.31
2022-09-02T16:14:23.474Z,100100.06
2022-09-02T16:16:52.702Z,100105.63
2022-09-02T16:19:24.748Z,100094.09
2022-09-02T16:21:52.723Z,100108.44
2022-09-02T16:24:21.602Z,100103.34
2022-09-02T16:26:49.358Z,100113.63
2022-09-02T16:29:17.802Z,100110.03
2022-09-02T16:32:01.832Z,100116.25
2022-09-02T16:34:33.904Z,100119.03
2022-09-02T16:37:01.028Z,100129.75
2022-09-02T16:39:28.045Z,100117.00
2022-09-02T16:41:55.420Z,100126.38
2022-09-02T16:44:24.641Z,100128.88
2022-09-02T16:46:52.893Z,100128.00
2022-09-02T16:49:22.122Z,100128.00
2022-09-02T16:51:53.993Z,100125.84
2022-09-02T16:54:30.887Z,100125.53
2022-09-02T16:57:00.343Z,100121.75
2022-09-02T16:59:27.643Z,100131.50
2022-09-02T17:01:54.648Z,100134.94
2022-09-02T17:04:21.830Z,100139.88
2022-09-02T17:06:49.019Z,100135.88
2022-09-02T17:09:16.552Z,100140.78
2022-09-02T17:11:45.606Z,100139.09
2022-09-02T17:14:17.780Z,100150.19
2022-09-02T17:16:47.812Z,100151.19
2022-09-02T17:19:21.304Z,100156.75
2022-09-02T17:21:53.850Z,100153.03
2022-09-02T17:24:24.167Z,100145.06
2022-09-02T17:26:54.465Z,100162.75
2022-09-02T17:29:48.033Z,100161.09
2022-09-02T17:32:10.975Z,100164.94
2022-09-02T17:34:38.102Z,100165.09
2022-09-02T17:37:05.638Z,100173.41
2022-09-02T17:39:34.385Z,100171.38
2022-09-02T17:42:03.252Z,100173.84
2022-09-02T17:44:36.094Z,100178.72
2022-09-02T17:47:14.613Z,100177.84
2022-09-02T17:49:44.797Z,100176.31
2022-09-02T17:52:22.956Z,100182.09
2022-09-02T17:54:52.387Z,100188.50
2022-09-02T17:57:25.689Z,100181.41
2022-09-02T18:00:12.661Z,100184.41
2022-09-02T18:03:02.117Z,100186.00
2022-09-02T18:05:32.818Z,100183.50
2022-09-02T18:08:11.810Z,100191.31
2022-09-02T18:10:41.903Z,100186.88
2022-09-02T18:13:14.353Z,100190.34
2022-09-02T18:16:23.081Z,100186.75
2022-09-02T18:18:56.816Z,100192.13
2022-09-02T18:21:30.572Z,100193.94
2022-09-02T18:24:07.574Z,100195.06
2022-09-02T18:26:40.399Z,100195.13
2022-09-02T18:29:31.869Z,100190.94
2022-09-02T18:33:06.752Z,100189.28
2022-09-02T18:35:40.122Z,100196.50
2022-09-02T18:38:13.069Z,100200.06
2022-09-02T18:41:00.085Z,100195.25
2022-09-02T18:43:52.268Z,100198.56
2022-09-02T18:46:21.358Z,100197.06
2022-09-02T18:48:52.908Z,100199.97
2022-09-02T18:51:41.068Z,100203.19
2022-09-02T18:54:42.153Z,100195.91
2022-09-02T18:57:09.469Z,100200.47
2022-09-02T18:59:47.359Z,100203.66
2022-09-02T19:02:22.809Z,100215.09
2022-09-02T19:04:50.402Z,100210.25
2022-09-02T19:07:38.056Z,100214.81
2022-09-02T19:10:06.425Z,100208.81
2022-09-02T19:12:35.765Z,100216.25
2022-09-02T19:15:10.912Z,100217.53
2022-09-02T19:17:41.758Z,100219.63
2022-09-02T19:20:10.248Z,100228.47
2022-09-02T19:22:42.990Z,100223.78
2022-09-02T19:25:23.264Z,100228.47
2022-09-02T19:27:52.225Z,100232.09
2022-09-02T19:30:24.790Z,100238.72
2022-09-02T19:32:53.926Z,100235.56
2022-09-02T19:35:24.772Z,100238.44
2022-09-02T19:37:53.865Z,100239.81
2022-09-02T19:40:33.749Z,100250.97
2022-09-02T19:43:03.449Z,100237.34
2022-09-02T19:45:37.804Z,100256.63
2022-09-02T19:48:08.476Z,100256.75
2022-09-02T19:50:38.744Z,100256.63
2022-09-02T19:53:06.636Z,100258.16
2022-09-02T19:55:33.970Z,100264.88
2022-09-02T19:58:01.250Z,100267.09
2022-09-02T20:00:28.273Z,100273.41
2022-09-02T20:02:56.246Z,100267.78
2022-09-02T20:05:25.417Z,100284.56
2022-09-02T20:07:55.064Z,100278.06
2022-09-02T20:10:27.959Z,100278.88
2022-09-02T20:12:59.357Z,100290.03
2022-09-02T20:15:26.608Z,100282.72
2022-09-02T20:17:53.702Z,100292.09
2022-09-02T20:20:23.947Z,100296.47
2022-09-02T20:22:57.605Z,100291.91
2022-09-02T20:25:36.725Z,100277.16
2022-09-02T20:28:24.755Z,100284.47
2022-09-02T20:31:10.254Z,100287.03
2022-09-02T20:33:49.825Z,100291.03
2022-09-02T20:36:27.084Z,100280.69
2022-09-02T20:39:04.092Z,100299.16
2022-09-02T20:41:44.777Z,100297.50
2022-09-02T20:44:28.209Z,100292.53
2022-09-02T20:47:10.067Z,100298.84
2022-09-02T20:50:38.909Z,100301.34
2022-09-02T20:53:27.091Z,100306.81
2022-09-02T20:56:03.336Z,100308.16
2022-09-02T20:58:54.129Z,100315.88
2022-09-02T21:01:29.156Z,100311.19
2022-09-02T21:04:05.845Z,100312.78
2022-09-02T21:06:49.003Z,100310.31
2022-09-02T21:09:48.453Z,100309.47
2022-09-02T21:12:37.024Z,100318.41
2022-09-02T21:15:13.304Z,100305.34
2022-09-02T21:17:49.455Z,100319.59
2022-09-02T21:20:38.231Z,100323.44
2022-09-02T21:23:13.901Z,100312.94
2022-09-02T21:26:06.822Z,100319.13
2022-09-02T21:29:20.534Z,100325.41
2022-09-02T21:32:27.180Z,100327.72
2022-09-02T21:35:00.479Z,100338.28
2022-09-02T21:37:32.461Z,100332.94
2022-09-02T21:40:11.071Z,100339.97
2022-09-02T21:43:05.793Z,100341.16
2022-09-02T21:46:12.514Z,100342.81
2022-09-02T21:48:59.249Z,100339.66
2022-09-02T21:51:49.740Z,100345.81
2022-09-02T21:54:30.941Z,100336.69
2022-09-02T21:57:04.034Z,100338.59
2022-09-02T21:59:55.266Z,100343.50
2022-09-02T22:02:27.626Z,100348.16
2022-09-02T22:04:57.304Z,100351.72
2022-09-02T22:07:49.227Z,100357.19
2022-09-02T22:10:27.205Z,100348.91
2022-09-02T22:13:03.619Z,100346.66
2022-09-02T22:16:11.651Z,100350.78
2022-09-02T22:19:01.884Z,100357.84
2022-09-02T22:21:40.961Z,100349.88
2022-09-02T22:24:08.468Z,100342.91
2022-09-02T22:26:44.787Z,100353.13
2022-09-02T22:29:29.121Z,100355.84
2022-09-02T22:32:00.581Z,100359.16
2022-09-02T22:34:30.264Z,100368.53
2022-09-02T22:37:02.998Z,100364.16
2022-09-02T22:39:41.511Z,100358.28
2022-09-02T22:42:32.717Z,100366.19
2022-09-02T22:45:24.020Z,100374.50
2022-09-02T22:48:17.659Z,100369.75
2022-09-02T22:51:10.449Z,100371.41
2022-09-02T22:53:37.529Z,100374.28
2022-09-02T22:56:09.754Z,100372.00
2022-09-02T22:59:12.319Z,100372.94
2022-09-02T23:02:43.971Z,100371.56
2022-09-02T23:05:38.211Z,100372.25
2022-09-02T23:08:08.921Z,100375.56
2022-09-02T23:10:41.193Z,100377.47
2022-09-02T23:13:20.200Z,100374.16
2022-09-02T23:15:58.613Z,100378.41
2022-09-02T23:19:02.337Z,100376.16
2022-09-02T23:21:38.753Z,100381.63
2022-09-02T23:24:27.564Z,100384.22
2022-09-02T23:26:54.543Z,100384.34
2022-09-02T23:29:26.651Z,100384.34
2022-09-02T23:32:23.519Z,100393.94
2022-09-02T23:35:07.036Z,100393.59
2022-09-02T23:38:00.371Z,100393.81
2022-09-02T23:40:31.380Z,100393.72
2022-09-02T23:43:00.469Z,100384.94
2022-09-02T23:45:29.727Z,100389.66
2022-09-02T23:47:56.643Z,100394.28
2022-09-02T23:50:56.429Z,100390.88
2022-09-02T23:53:46.764Z,100393.38
2022-09-02T23:56:33.654Z,100389.22
2022-09-02T23:59:18.709Z,100398.59
